Time;durP1;ratioP1;P1;durP2;ratioP2;P2;SDS_P1;SDS_P2;PMS_P1;PMS_P2;Temp;Humidity;BMP_temperature;BMP_pressure;BME280_temperature;BME280_humidity;BME280_pressure;Samples;Min_cycle;Max_cycle;Signal;HPM_P1;HPM_P2
2022/02/20 00:00:53;;;;;;;8.73;2.95;;;4.70;54.70;;;;;;4989371;28;20229;-82
2022/02/20 00:03:20;;;;;;;7.95;3.03;;;4.70;96.40;;;;;;4990139;28;20232;-83
2022/02/20 00:05:47;;;;;;;6.97;2.60;;;4.70;99.90;;;;;;4993045;28;20209;-83
2022/02/20 00:08:15;;;;;;;5.15;2.42;;;4.60;99.90;;;;;;4999648;28;20236;-83
2022/02/20 00:10:41;;;;;;;3.90;2.22;;;4.60;99.90;;;;;;4999990;28;20216;-82
2022/02/20 00:13:09;;;;;;;4.20;2.33;;;4.60;99.90;;;;;;4999864;28;20206;-82
2022/02/20 00:15:36;;;;;;;2.97;2.17;;;4.20;99.90;;;;;;4999033;28;20212;-83
2022/02/20 00:18:03;;;;;;;3.70;2.45;;;4.50;99.90;;;;;;4988474;28;20202;-83
2022/02/20 00:20:31;;;;;;;3.55;2.30;;;4.40;99.90;;;;;;4988384;28;20203;-83
2022/02/20 00:22:58;;;;;;;5.93;3.33;;;4.40;99.90;;;;;;4987810;28;20328;-83
2022/02/20 00:25:26;;;;;;;8.38;3.60;;;4.30;99.90;;;;;;4987476;28;20692;-83
2022/02/20 00:27:52;;;;;;;4.50;2.55;;;4.30;99.90;;;;;;4988061;28;20679;-83
2022/02/20 00:30:20;;;;;;;4.03;1.88;;;4.40;99.90;;;;;;4987127;28;20205;-83
2022/02/20 00:32:47;;;;;;;5.30;2.85;;;4.40;99.90;;;;;;4988906;28;20245;-83
2022/02/20 00:35:13;;;;;;;8.75;3.08;;;4.40;99.90;;;;;;4989532;28;20210;-83
2022/02/20 00:37:40;;;;;;;5.85;2.60;;;4.40;99.90;;;;;;4988889;28;20201;-83
2022/02/20 00:40:08;;;;;;;5.13;2.60;;;4.50;99.90;;;;;;4989239;28;20201;-83
2022/02/20 00:42:36;;;;;;;4.68;2.90;;;4.30;99.90;;;;;;4992778;28;20222;-84
2022/02/20 00:45:03;;;;;;;7.05;3.28;;;4.30;99.90;;;;;;4991649;28;20699;-82
2022/02/20 00:47:29;;;;;;;2.70;2.50;;;4.30;99.90;;;;;;4990995;28;20273;-84
2022/02/20 00:49:56;;;;;;;4.55;2.50;;;4.30;99.90;;;;;;4988642;28;20226;-83
2022/02/20 00:52:23;;;;;;;5.28;3.28;;;4.30;99.90;;;;;;4987219;28;20724;-83
2022/02/20 00:54:49;;;;;;;5.03;2.17;;;4.10;99.90;;;;;;4993944;28;20190;-83
2022/02/20 00:57:16;;;;;;;14.05;4.45;;;4.20;99.90;;;;;;4988862;28;20201;-83
2022/02/20 00:59:44;;;;;;;9.57;3.83;;;4.10;99.90;;;;;;4987056;28;20264;-83
2022/02/20 01:02:10;;;;;;;8.15;3.17;;;4.20;99.90;;;;;;4986396;28;20225;-83
2022/02/20 01:04:37;;;;;;;5.60;2.55;;;4.10;99.90;;;;;;4986752;28;20217;-84
2022/02/20 01:07:04;;;;;;;3.95;2.40;;;4.10;99.90;;;;;;4987242;28;20304;-84
2022/02/20 01:09:32;;;;;;;6.03;2.30;;;4.00;99.90;;;;;;4984991;28;20232;-82
2022/02/20 01:11:58;;;;;;;2.70;1.80;;;4.00;99.90;;;;;;4985666;28;20225;-83
2022/02/20 01:14:25;;;;;;;3.30;2.63;;;3.90;99.90;;;;;;4985896;28;20202;-84
2022/02/20 01:16:53;;;;;;;2.10;1.80;;;4.00;99.90;;;;;;4984971;28;20250;-84
2022/02/20 01:19:20;;;;;;;5.53;2.25;;;3.90;99.90;;;;;;4984987;28;20210;-83
2022/02/20 01:21:46;;;;;;;3.50;2.08;;;3.50;99.90;;;;;;4991778;28;20225;-83
2022/02/20 01:24:14;;;;;;;6.40;2.53;;;3.80;99.90;;;;;;4997043;28;20237;-83
2022/02/20 01:26:41;;;;;;;9.32;2.70;;;3.70;99.90;;;;;;4994840;28;20221;-83
2022/02/20 01:29:08;;;;;;;3.45;2.30;;;3.70;99.90;;;;;;4987812;28;20257;-83
2022/02/20 01:31:35;;;;;;;3.20;2.55;;;4.00;99.90;;;;;;4986561;28;20619;-83
2022/02/20 01:34:03;;;;;;;3.55;2.40;;;3.70;99.90;;;;;;4989062;28;20198;-83
2022/02/20 01:36:31;;;;;;;8.15;3.03;;;3.70;99.90;;;;;;4992240;28;20209;-83
2022/02/20 01:38:58;;;;;;;4.75;2.85;;;3.70;99.90;;;;;;4993922;28;20213;-83
2022/02/20 01:41:24;;;;;;;5.60;2.63;;;3.90;99.90;;;;;;4992276;28;20210;-83
2022/02/20 01:43:52;;;;;;;4.15;2.55;;;3.60;99.90;;;;;;4997865;28;20193;-83
2022/02/20 01:46:19;;;;;;;5.95;3.17;;;3.60;99.90;;;;;;4992407;28;20225;-83
2022/02/20 01:48:46;;;;;;;2.50;2.30;;;3.60;99.90;;;;;;4986741;28;20241;-83
2022/02/20 01:51:14;;;;;;;7.80;3.03;;;3.60;99.90;;;;;;4984727;28;20202;-83
2022/02/20 01:53:41;;;;;;;7.82;3.40;;;3.60;99.90;;;;;;4985659;28;20234;-83
2022/02/20 01:56:10;;;;;;;5.63;2.83;;;3.60;99.90;;;;;;4987101;28;20209;-83
2022/02/20 01:58:37;;;;;;;5.28;2.90;;;3.50;99.90;;;;;;4993180;28;20198;-83
2022/02/20 02:01:05;;;;;;;8.30;2.58;;;3.50;99.90;;;;;;4998420;28;20201;-83
2022/02/20 02:03:33;;;;;;;5.80;3.05;;;3.40;99.90;;;;;;4997846;28;20252;-83
2022/02/20 02:05:59;;;;;;;5.30;2.25;;;3.40;99.90;;;;;;4997579;28;20209;-83
2022/02/20 02:08:27;;;;;;;8.73;2.90;;;3.30;99.90;;;;;;4997533;28;20253;-83
2022/02/20 02:10:54;;;;;;;3.33;2.55;;;3.40;99.90;;;;;;4998176;28;20201;-83
2022/02/20 02:13:21;;;;;;;9.43;4.55;;;3.30;99.90;;;;;;4998339;28;20241;-83
2022/02/20 02:15:49;;;;;;;7.53;2.90;;;3.30;99.90;;;;;;4997966;28;20190;-83
2022/02/20 02:18:15;;;;;;;3.60;2.88;;;3.30;99.90;;;;;;4991898;28;20237;-83
2022/02/20 02:20:42;;;;;;;6.25;3.17;;;3.30;99.90;;;;;;4984605;28;20228;-83
2022/02/20 02:23:10;;;;;;;3.03;2.75;;;3.20;99.90;;;;;;4983857;28;20221;-83
2022/02/20 02:25:39;;;;;;;2.53;2.30;;;3.20;99.90;;;;;;4983437;28;20239;-83
2022/02/20 02:28:06;;;;;;;4.95;2.75;;;3.30;99.90;;;;;;4983249;28;20229;-83
2022/02/20 02:30:33;;;;;;;9.27;2.85;;;3.20;99.90;;;;;;4983706;28;20229;-83
2022/02/20 02:32:59;;;;;;;3.40;2.35;;;3.10;99.90;;;;;;4984667;28;20281;-83
2022/02/20 02:35:26;;;;;;;3.03;2.67;;;3.20;99.90;;;;;;4985067;28;20221;-83
2022/02/20 02:37:53;;;;;;;3.15;2.72;;;3.20;99.90;;;;;;4982869;28;20209;-82
2022/02/20 02:40:21;;;;;;;3.60;2.65;;;3.10;99.90;;;;;;4985905;28;20190;-83
2022/02/20 02:42:48;;;;;;;3.40;2.17;;;3.10;99.90;;;;;;4995646;28;20225;-83
2022/02/20 02:45:15;;;;;;;5.03;3.38;;;3.10;99.90;;;;;;4980893;28;20202;-83
2022/02/20 02:47:45;;;;;;;3.92;2.75;;;3.10;99.90;;;;;;4997522;28;20209;-83
2022/02/20 02:50:12;;;;;;;3.92;3.13;;;3.20;99.90;;;;;;4998902;28;20204;-82
2022/02/20 02:52:39;;;;;;;2.83;2.63;;;3.20;99.90;;;;;;4998304;28;20261;-82
2022/02/20 02:55:06;;;;;;;3.28;2.10;;;3.10;99.90;;;;;;4998738;28;20208;-82
2022/02/20 02:57:34;;;;;;;2.10;1.90;;;3.10;99.90;;;;;;4998789;28;20182;-82
2022/02/20 03:00:01;;;;;;;4.00;2.50;;;3.10;99.90;;;;;;4998463;28;20264;-82
2022/02/20 03:02:28;;;;;;;3.53;2.30;;;3.10;99.90;;;;;;4996207;28;20226;-82
2022/02/20 03:04:55;;;;;;;2.38;2.17;;;3.10;99.90;;;;;;4992584;28;20233;-82
2022/02/20 03:07:22;;;;;;;2.90;2.65;;;3.10;99.90;;;;;;4986633;28;20210;-83
2022/02/20 03:09:49;;;;;;;3.33;3.13;;;3.20;99.90;;;;;;4984092;28;20596;-83
2022/02/20 03:12:15;;;;;;;2.63;2.53;;;3.10;99.90;;;;;;4986882;28;20221;-82
2022/02/20 03:14:43;;;;;;;3.65;3.05;;;3.20;99.90;;;;;;4985102;28;20202;-83
2022/02/20 03:17:10;;;;;;;4.95;2.60;;;3.20;99.90;;;;;;4985313;28;20206;-83
2022/02/20 03:19:37;;;;;;;2.90;2.60;;;3.20;99.90;;;;;;4985319;28;20241;-83
2022/02/20 03:22:04;;;;;;;2.90;2.70;;;3.10;99.90;;;;;;4985389;28;20230;-83
2022/02/20 03:24:30;;;;;;;6.30;2.80;;;3.10;99.90;;;;;;4987802;28;20205;-82
2022/02/20 03:26:57;;;;;;;3.88;3.28;;;3.10;99.90;;;;;;4989333;28;20223;-82
2022/02/20 03:29:24;;;;;;;3.80;3.13;;;3.10;99.90;;;;;;4987175;28;20206;-83
2022/02/20 03:31:52;;;;;;;3.17;2.70;;;3.10;99.90;;;;;;4985828;28;20225;-83
2022/02/20 03:34:19;;;;;;;2.60;2.40;;;3.20;99.90;;;;;;4985782;28;20213;-82
2022/02/20 03:36:45;;;;;;;5.43;3.10;;;3.10;99.90;;;;;;4986494;28;20228;-83
2022/02/20 03:39:12;;;;;;;4.63;2.70;;;3.10;99.90;;;;;;4987282;28;20548;-82
2022/02/20 03:41:39;;;;;;;3.05;2.85;;;3.00;99.90;;;;;;4981379;28;20276;-82
2022/02/20 03:44:06;;;;;;;3.83;3.08;;;2.90;99.90;;;;;;4982147;28;20198;-82
2022/02/20 03:46:33;;;;;;;6.10;3.22;;;3.00;99.90;;;;;;4981912;28;20202;-82
2022/02/20 03:49:01;;;;;;;5.72;3.20;;;3.00;99.90;;;;;;4982209;28;20218;-82
2022/02/20 03:51:28;;;;;;;4.00;3.13;;;3.20;99.90;;;;;;4982868;28;20208;-83
2022/02/20 03:53:55;;;;;;;4.18;2.47;;;3.00;99.90;;;;;;4984302;28;20205;-83
2022/02/20 03:56:21;;;;;;;5.32;3.00;;;3.10;99.90;;;;;;4984350;28;20202;-83
2022/02/20 03:58:48;;;;;;;3.58;3.03;;;3.00;99.90;;;;;;4985041;28;20209;-83
2022/02/20 04:01:14;;;;;;;2.90;2.70;;;3.10;99.90;;;;;;4985579;28;20213;-83
2022/02/20 04:03:42;;;;;;;3.60;3.30;;;3.10;99.90;;;;;;4995072;28;20250;-83
2022/02/20 04:06:10;;;;;;;3.65;3.35;;;2.90;99.90;;;;;;4994277;28;20277;-83
2022/02/20 04:08:37;;;;;;;2.30;2.13;;;3.10;99.90;;;;;;4985745;28;20210;-83
2022/02/20 04:11:03;;;;;;;3.28;2.60;;;3.10;99.90;;;;;;4984327;28;20320;-83
2022/02/20 04:13:30;;;;;;;4.82;2.58;;;3.10;99.90;;;;;;4984453;28;20278;-83
2022/02/20 04:15:56;;;;;;;2.97;2.78;;;3.20;99.90;;;;;;4985167;28;20206;-83
2022/02/20 04:18:23;;;;;;;8.00;2.97;;;3.20;99.90;;;;;;4984802;28;20297;-83
2022/02/20 04:20:50;;;;;;;2.92;2.60;;;3.10;99.90;;;;;;4983860;28;20209;-83
2022/02/20 04:23:17;;;;;;;2.63;2.42;;;3.20;99.90;;;;;;4983993;28;20221;-82
2022/02/20 04:25:44;;;;;;;2.92;2.65;;;3.30;99.90;;;;;;4994735;28;20190;-83
2022/02/20 04:28:11;;;;;;;2.90;2.70;;;3.30;99.90;;;;;;4996907;28;20206;-82
2022/02/20 04:30:38;;;;;;;2.38;2.28;;;3.30;99.90;;;;;;4996742;28;20221;-81
2022/02/20 04:33:06;;;;;;;3.58;2.88;;;3.30;99.90;;;;;;4994110;28;20229;-81
2022/02/20 04:35:32;;;;;;;2.75;2.55;;;3.40;99.90;;;;;;4988647;28;20206;-81
2022/02/20 04:38:00;;;;;;;3.35;2.83;;;3.40;99.90;;;;;;4991017;28;20214;-82
2022/02/20 04:40:29;;;;;;;5.32;2.63;;;3.40;99.90;;;;;;4992614;28;20680;-83
2022/02/20 04:42:56;;;;;;;3.17;2.83;;;3.40;99.90;;;;;;4990532;28;20225;-83
2022/02/20 04:45:23;;;;;;;4.20;2.72;;;3.40;99.90;;;;;;4991567;28;20202;-83
2022/02/20 04:47:49;;;;;;;3.65;2.40;;;3.40;99.90;;;;;;4993072;28;20212;-84
2022/02/20 04:50:16;;;;;;;3.40;2.65;;;3.40;99.90;;;;;;4995325;28;20222;-83
2022/02/20 04:52:43;;;;;;;2.83;2.45;;;3.40;99.90;;;;;;5009378;23;20253;-79
2022/02/20 04:55:10;;;;;;;3.17;2.53;;;3.40;99.90;;;;;;4998787;28;20256;-82
2022/02/20 04:57:41;;;;;;;2.47;2.38;;;3.40;99.90;;;;;;4997776;28;20205;-80
2022/02/20 05:00:11;;;;;;;2.63;2.42;;;3.50;99.90;;;;;;4998369;28;20229;-81
2022/02/20 05:02:37;;;;;;;2.90;2.70;;;3.40;99.90;;;;;;5002852;28;20232;-81
2022/02/20 05:05:05;;;;;;;3.15;2.50;;;3.50;99.90;;;;;;4999308;28;20369;-81
2022/02/20 05:07:32;;;;;;;3.30;2.75;;;3.40;99.90;;;;;;4998655;28;20201;-80
2022/02/20 05:09:58;;;;;;;3.45;3.08;;;3.60;99.90;;;;;;4998600;28;20220;-80
2022/02/20 05:12:25;;;;;;;10.55;7.53;;;3.50;99.90;;;;;;4998753;28;20236;-80
2022/02/20 05:14:53;;;;;;;25.40;12.80;;;5.10;99.90;;;;;;4998432;28;20209;-80
2022/02/20 05:17:19;;;;;;;21.13;11.75;;;3.50;99.90;;;;;;4998632;28;20263;-82
2022/02/20 05:19:46;;;;;;;15.60;8.90;;;3.50;99.90;;;;;;5008459;28;20211;-80
2022/02/20 05:22:13;;;;;;;5.25;3.53;;;3.50;99.90;;;;;;5011473;28;20229;-79
2022/02/20 05:24:39;;;;;;;10.43;8.23;;;3.50;99.90;;;;;;5013157;28;20208;-80
2022/02/20 05:27:06;;;;;;;7.50;5.35;;;3.60;99.90;;;;;;5001903;28;20243;-81
2022/02/20 05:29:33;;;;;;;3.05;2.85;;;3.60;99.90;;;;;;5000999;28;20220;-82
2022/02/20 05:32:01;;;;;;;3.38;3.08;;;3.60;99.90;;;;;;4999137;28;20260;-81
2022/02/20 05:34:27;;;;;;;5.35;3.88;;;3.70;99.90;;;;;;4999033;28;20205;-80
2022/02/20 05:36:56;;;;;;;3.53;2.65;;;3.70;99.90;;;;;;4999428;28;20201;-81
2022/02/20 05:39:22;;;;;;;5.13;4.63;;;3.70;99.90;;;;;;5003266;28;20209;-80
2022/02/20 05:41:49;;;;;;;8.93;8.00;;;3.60;99.90;;;;;;5010786;28;20208;-80
2022/02/20 05:44:15;;;;;;;8.95;6.40;;;3.80;99.90;;;;;;5010640;28;20204;-79
2022/02/20 05:46:42;;;;;;;4.80;4.35;;;3.90;99.90;;;;;;5006386;28;20661;-82
2022/02/20 05:49:10;;;;;;;4.47;4.07;;;3.90;99.90;;;;;;5006974;28;20205;-79
2022/02/20 05:51:37;;;;;;;4.47;3.70;;;4.10;99.90;;;;;;4975442;28;965147;-78
2022/02/20 05:54:03;;;;;;;4.00;3.60;;;3.90;99.90;;;;;;5009127;28;20205;-80
2022/02/20 05:56:30;;;;;;;3.10;2.90;;;4.00;99.90;;;;;;5005582;28;20267;-80
2022/02/20 05:58:56;;;;;;;5.95;3.30;;;3.90;99.90;;;;;;4999469;28;20240;-80
2022/02/20 06:01:23;;;;;;;3.10;2.90;;;4.10;99.90;;;;;;5000777;28;20216;-80
2022/02/20 06:03:49;;;;;;;2.97;2.67;;;4.00;99.90;;;;;;5001612;28;20224;-81
2022/02/20 06:06:18;;;;;;;2.80;2.60;;;4.00;99.90;;;;;;5001022;28;20271;-81
2022/02/20 06:08:44;;;;;;;3.10;2.90;;;3.90;99.90;;;;;;5002329;28;20209;-81
2022/02/20 06:11:11;;;;;;;2.83;2.63;;;3.90;99.90;;;;;;4999161;28;20591;-81
2022/02/20 06:13:38;;;;;;;3.45;3.15;;;3.90;99.90;;;;;;4998815;28;20248;-81
2022/02/20 06:16:05;;;;;;;3.17;2.97;;;4.00;99.90;;;;;;4999436;28;20209;-81
2022/02/20 06:18:31;;;;;;;5.55;3.47;;;4.00;99.90;;;;;;4999202;28;20209;-81
2022/02/20 06:20:58;;;;;;;3.47;3.17;;;4.00;99.90;;;;;;4998868;28;20229;-82
2022/02/20 06:23:26;;;;;;;3.60;3.30;;;4.00;99.90;;;;;;4999269;28;20232;-81
2022/02/20 06:25:52;;;;;;;3.47;3.20;;;4.00;99.90;;;;;;4999675;28;20205;-81
2022/02/20 06:28:19;;;;;;;2.70;2.47;;;4.00;99.90;;;;;;5000359;28;20205;-81
2022/02/20 06:30:45;;;;;;;3.75;3.55;;;3.90;99.90;;;;;;5006738;28;20297;-80
2022/02/20 06:33:12;;;;;;;3.15;2.85;;;3.90;99.90;;;;;;4997005;28;20257;-80
2022/02/20 06:35:38;;;;;;;6.43;3.95;;;3.90;99.90;;;;;;4996914;28;20205;-79
2022/02/20 06:38:06;;;;;;;3.38;3.08;;;4.00;99.90;;;;;;5004058;28;20209;-79
2022/02/20 06:40:34;;;;;;;5.70;3.08;;;4.00;99.90;;;;;;5006537;28;20255;-79
2022/02/20 06:43:01;;;;;;;2.95;2.65;;;3.80;99.90;;;;;;5008299;28;20232;-79
2022/02/20 06:45:28;;;;;;;3.30;3.03;;;4.30;99.90;;;;;;5011940;28;20228;-81
2022/02/20 06:47:54;;;;;;;3.38;3.17;;;4.00;99.90;;;;;;5003854;28;20205;-81
2022/02/20 06:50:21;;;;;;;3.55;3.25;;;4.00;99.90;;;;;;5003525;28;20247;-82
2022/02/20 06:52:48;;;;;;;5.32;3.25;;;4.10;99.90;;;;;;5001999;28;20680;-80
2022/02/20 06:55:14;;;;;;;3.53;3.22;;;4.10;99.90;;;;;;5002216;28;20625;-82
2022/02/20 06:57:42;;;;;;;3.00;2.80;;;4.10;99.90;;;;;;5001818;28;20230;-80
2022/02/20 07:00:12;;;;;;;2.85;2.65;;;4.10;99.90;;;;;;5001723;28;20235;-82
2022/02/20 07:02:39;;;;;;;5.75;5.25;;;4.10;99.90;;;;;;5001668;28;20236;-81
2022/02/20 07:05:07;;;;;;;4.10;3.65;;;4.20;99.90;;;;;;5001436;28;20260;-81
2022/02/20 07:07:34;;;;;;;4.07;3.78;;;4.20;99.90;;;;;;5001312;28;20209;-82
2022/02/20 07:10:03;;;;;;;3.50;3.30;;;4.20;99.90;;;;;;4998787;28;20216;-81
2022/02/20 07:12:30;;;;;;;3.97;3.60;;;4.30;99.90;;;;;;5012994;28;20249;-80
2022/02/20 07:14:58;;;;;;;2.92;2.72;;;4.40;99.90;;;;;;5000838;28;20672;-81
2022/02/20 07:17:24;;;;;;;3.85;3.30;;;4.30;99.90;;;;;;5001720;28;20233;-82
2022/02/20 07:19:51;;;;;;;5.50;4.05;;;4.30;99.90;;;;;;5001192;28;20255;-80
2022/02/20 07:22:18;;;;;;;3.60;3.22;;;4.30;99.90;;;;;;5000937;28;20672;-81
2022/02/20 07:24:44;;;;;;;3.60;3.30;;;4.60;99.90;;;;;;5006438;28;20691;-80
2022/02/20 07:27:11;;;;;;;4.68;3.75;;;4.30;99.90;;;;;;5004317;28;20205;-80
2022/02/20 07:29:37;;;;;;;3.85;3.55;;;4.30;99.90;;;;;;5001448;28;20205;-81
2022/02/20 07:32:06;;;;;;;4.18;3.78;;;4.20;99.90;;;;;;5001339;28;20256;-82
2022/02/20 07:34:34;;;;;;;3.85;3.50;;;4.20;99.90;;;;;;5001625;28;20212;-81
2022/02/20 07:37:01;;;;;;;3.67;3.38;;;4.20;99.90;;;;;;5000707;28;20207;-81
2022/02/20 07:39:27;;;;;;;4.03;3.63;;;4.30;99.90;;;;;;5001335;28;20256;-81
2022/02/20 07:41:56;;;;;;;4.18;3.65;;;4.30;99.90;;;;;;5001242;28;20216;-81
2022/02/20 07:44:23;;;;;;;3.67;3.38;;;4.30;99.90;;;;;;5001482;28;20236;-81
2022/02/20 07:46:50;;;;;;;3.30;3.00;;;4.30;99.90;;;;;;4999976;28;20267;-79
2022/02/20 07:49:17;;;;;;;3.38;3.17;;;4.30;99.90;;;;;;4999645;28;20244;-81
2022/02/20 07:51:45;;;;;;;3.67;3.38;;;4.30;99.90;;;;;;4999620;28;20245;-79
2022/02/20 07:54:11;;;;;;;5.32;3.58;;;4.30;99.90;;;;;;5001816;28;20197;-81
2022/02/20 07:56:38;;;;;;;2.83;2.63;;;4.40;99.90;;;;;;5000771;28;20237;-82
2022/02/20 07:59:05;;;;;;;3.15;2.95;;;4.40;99.90;;;;;;5000881;28;20240;-80
2022/02/20 08:01:32;;;;;;;3.60;3.40;;;4.30;99.90;;;;;;5001957;28;20239;-81
2022/02/20 08:03:58;;;;;;;3.97;3.67;;;4.30;99.90;;;;;;5001016;28;20216;-81
2022/02/20 08:06:26;;;;;;;3.60;3.30;;;4.30;99.90;;;;;;5001364;28;20240;-81
2022/02/20 08:08:53;;;;;;;4.07;3.60;;;4.30;99.90;;;;;;5001547;28;20209;-81
2022/02/20 08:11:20;;;;;;;3.35;3.13;;;4.60;99.90;;;;;;5002490;28;20271;-80
2022/02/20 08:13:47;;;;;;;4.40;4.00;;;4.40;99.90;;;;;;5001475;28;20271;-81
2022/02/20 08:16:13;;;;;;;4.15;3.75;;;4.70;99.90;;;;;;5001745;28;20231;-82
2022/02/20 08:18:41;;;;;;;3.75;3.45;;;4.50;99.90;;;;;;4999919;28;20205;-81
2022/02/20 08:21:07;;;;;;;3.55;3.25;;;4.60;99.90;;;;;;4999291;28;20293;-81
2022/02/20 08:23:35;;;;;;;3.20;3.00;;;4.70;99.90;;;;;;4998467;28;20229;-81
2022/02/20 08:26:02;;;;;;;4.10;3.80;;;4.70;99.90;;;;;;4999280;28;20224;-82
2022/02/20 08:28:28;;;;;;;4.60;4.20;;;4.60;99.90;;;;;;5000611;28;20263;-81
2022/02/20 08:30:55;;;;;;;3.72;3.42;;;4.70;99.90;;;;;;5001090;28;20566;-81
2022/02/20 08:33:22;;;;;;;4.18;3.88;;;4.90;99.90;;;;;;5007065;28;20229;-80
2022/02/20 08:35:48;;;;;;;3.15;2.95;;;4.70;99.90;;;;;;5008139;28;20205;-79
2022/02/20 08:38:20;;;;;;;3.95;3.65;;;4.70;99.90;;;;;;5011627;28;20240;-79
2022/02/20 08:40:50;;;;;;;3.45;3.20;;;4.70;99.90;;;;;;5013170;28;20192;-80
2022/02/20 08:43:18;;;;;;;4.50;3.75;;;4.80;99.90;;;;;;5013719;28;20228;-80
2022/02/20 08:45:47;;;;;;;3.50;3.28;;;4.80;99.90;;;;;;5012663;28;20241;-80
2022/02/20 08:48:14;;;;;;;3.80;3.50;;;4.90;99.90;;;;;;5007001;28;20235;-81
2022/02/20 08:50:42;;;;;;;3.63;3.33;;;4.80;99.90;;;;;;5007418;28;20256;-81
2022/02/20 08:53:10;;;;;;;4.60;4.10;;;5.00;99.90;;;;;;5005874;28;20237;-81
2022/02/20 08:55:36;;;;;;;3.25;3.00;;;5.10;99.90;;;;;;5003307;28;20209;-79
2022/02/20 08:58:05;;;;;;;3.40;3.10;;;5.10;99.90;;;;;;5009616;28;20212;-79
2022/02/20 09:00:32;;;;;;;3.70;3.40;;;5.00;99.90;;;;;;5000941;28;20208;-80
2022/02/20 09:02:59;;;;;;;3.97;3.67;;;5.10;99.90;;;;;;4999450;28;20225;-80
2022/02/20 09:05:25;;;;;;;4.22;3.90;;;5.20;99.90;;;;;;4999835;28;20212;-80
2022/02/20 09:07:52;;;;;;;4.05;3.75;;;5.10;99.90;;;;;;4999289;28;20209;-79
2022/02/20 09:10:18;;;;;;;4.20;3.80;;;5.30;99.90;;;;;;4999677;28;20263;-80
2022/02/20 09:12:45;;;;;;;4.20;3.90;;;5.30;99.90;;;;;;4998824;28;20707;-81
2022/02/20 09:15:14;;;;;;;4.32;3.92;;;5.20;99.90;;;;;;5003560;28;20284;-82
2022/02/20 09:17:41;;;;;;;5.15;4.57;;;5.40;99.90;;;;;;5005409;28;20228;-81
2022/02/20 09:20:09;;;;;;;7.07;4.72;;;5.40;99.90;;;;;;5014441;28;20219;-80
2022/02/20 09:22:38;;;;;;;3.65;3.45;;;5.30;99.90;;;;;;5010771;28;20221;-80
2022/02/20 09:25:05;;;;;;;4.93;3.75;;;5.30;99.90;;;;;;5007681;28;20251;-81
2022/02/20 09:27:31;;;;;;;4.72;4.30;;;5.30;99.90;;;;;;5002167;28;20205;-81
2022/02/20 09:29:58;;;;;;;4.45;4.05;;;5.30;99.90;;;;;;5000226;28;20228;-80
2022/02/20 09:32:27;;;;;;;4.10;3.70;;;5.40;99.90;;;;;;5005460;28;20260;-79
2022/02/20 09:34:53;;;;;;;3.55;3.35;;;5.30;99.90;;;;;;5013775;28;20235;-79
2022/02/20 09:37:20;;;;;;;4.20;3.80;;;5.30;99.90;;;;;;5014792;28;20189;-79
2022/02/20 09:39:47;;;;;;;4.22;3.83;;;5.40;99.90;;;;;;5014479;28;20207;-79
2022/02/20 09:42:15;;;;;;;4.38;3.97;;;5.40;99.90;;;;;;5013788;28;20229;-80
2022/02/20 09:44:43;;;;;;;4.88;4.47;;;5.40;99.90;;;;;;5009453;28;20209;-82
2022/02/20 09:47:11;;;;;;;4.80;4.40;;;5.50;99.90;;;;;;5002457;28;20209;-81
2022/02/20 09:49:40;;;;;;;5.10;4.60;;;5.30;99.90;;;;;;5001713;28;20287;-81
2022/02/20 09:52:07;;;;;;;5.45;5.05;;;5.50;99.90;;;;;;5001533;28;20229;-82
2022/02/20 09:54:34;;;;;;;5.35;4.95;;;5.50;99.90;;;;;;5000965;28;20205;-82
2022/02/20 09:57:01;;;;;;;5.88;5.13;;;5.50;99.90;;;;;;5000157;28;20205;-80
2022/02/20 09:59:27;;;;;;;5.53;5.00;;;5.50;99.90;;;;;;4999623;28;20240;-81
2022/02/20 10:02:08;;;;;;;5.25;4.78;;;5.60;99.90;;;;;;4999114;28;20222;-80
2022/02/20 10:04:41;;;;;;;7.10;5.47;;;5.50;99.90;;;;;;5001349;28;20204;-79
2022/02/20 10:07:18;;;;;;;6.47;5.13;;;5.70;99.90;;;;;;5006277;28;20293;-80
2022/02/20 10:09:45;;;;;;;5.43;4.93;;;5.70;99.90;;;;;;5007377;28;20196;-80
2022/02/20 10:12:19;;;;;;;6.00;4.85;;;5.60;99.90;;;;;;5010014;28;20229;-80
2022/02/20 10:14:46;;;;;;;5.72;4.60;;;5.60;99.90;;;;;;5011398;28;20205;-81
2022/02/20 10:17:13;;;;;;;5.38;4.90;;;5.70;99.90;;;;;;5003941;28;20259;-80
2022/02/20 10:19:53;;;;;;;6.85;5.07;;;5.80;99.90;;;;;;5010543;28;20212;-80
2022/02/20 10:22:33;;;;;;;6.55;5.40;;;5.80;99.90;;;;;;5018211;28;20211;-81
2022/02/20 10:25:17;;;;;;;7.53;6.03;;;5.80;99.90;;;;;;5015975;28;20193;-80
2022/02/20 10:27:49;;;;;;;5.65;5.03;;;5.70;99.90;;;;;;5006928;28;20189;-81
2022/02/20 10:30:18;;;;;;;6.35;5.65;;;5.80;99.90;;;;;;5004412;28;20185;-82
2022/02/20 10:32:47;;;;;;;8.90;6.43;;;5.80;99.90;;;;;;5002942;28;20228;-82
2022/02/20 10:35:16;;;;;;;7.55;6.00;;;5.90;99.90;;;;;;5003403;28;20296;-81
2022/02/20 10:37:44;;;;;;;7.32;6.53;;;5.80;99.90;;;;;;5003111;28;20205;-80
2022/02/20 10:40:27;;;;;;;6.63;5.93;;;6.10;99.90;;;;;;5003051;28;20209;-81
2022/02/20 10:42:57;;;;;;;6.80;5.80;;;6.20;99.90;;;;;;5001960;28;20566;-80
2022/02/20 10:45:26;;;;;;;6.68;6.03;;;6.20;99.90;;;;;;5001729;28;20237;-80
2022/02/20 10:47:53;;;;;;;6.03;5.53;;;6.30;99.90;;;;;;5002683;28;20614;-82
2022/02/20 10:50:22;;;;;;;4.60;4.20;;;6.30;99.90;;;;;;5002808;28;20258;-80
2022/02/20 10:53:08;;;;;;;6.50;5.57;;;6.30;99.90;;;;;;5010949;28;20229;-80
2022/02/20 10:55:36;;;;;;;7.38;5.35;;;6.30;99.90;;;;;;5001997;28;20236;-81
2022/02/20 10:58:09;;;;;;;6.57;5.97;;;6.40;99.90;;;;;;5003551;28;20209;-81
2022/02/20 11:00:36;;;;;;;4.88;4.43;;;6.50;99.90;;;;;;5002045;28;20212;-81
2022/02/20 11:03:08;;;;;;;6.63;4.90;;;6.60;99.90;;;;;;5002068;28;20244;-81
2022/02/20 11:05:38;;;;;;;5.43;4.70;;;6.60;99.90;;;;;;5002575;28;20209;-81
2022/02/20 11:08:06;;;;;;;5.40;4.90;;;6.50;99.90;;;;;;5002784;28;20611;-81
2022/02/20 11:10:33;;;;;;;5.55;4.80;;;6.50;99.90;;;;;;5003280;28;20572;-81
2022/02/20 11:13:01;;;;;;;5.93;5.32;;;6.60;99.90;;;;;;5003234;28;20260;-81
2022/02/20 11:15:28;;;;;;;4.90;4.40;;;6.60;99.90;;;;;;5003553;28;20205;-81
2022/02/20 11:17:55;;;;;;;5.38;4.82;;;6.50;99.90;;;;;;5003245;28;20209;-81
2022/02/20 11:20:24;;;;;;;5.05;4.57;;;6.60;99.90;;;;;;5002898;28;20236;-82
2022/02/20 11:22:54;;;;;;;5.60;5.03;;;6.50;99.90;;;;;;5002611;28;20550;-82
2022/02/20 11:25:21;;;;;;;6.25;5.28;;;6.50;99.90;;;;;;5003458;28;20193;-82
2022/02/20 11:27:50;;;;;;;6.13;4.82;;;6.50;99.90;;;;;;5002892;28;20628;-81
2022/02/20 11:30:17;;;;;;;13.82;10.90;;;6.40;99.90;;;;;;5002716;28;20263;-81
2022/02/20 11:32:46;;;;;;;7.68;5.63;;;6.50;99.90;;;;;;5001518;28;20224;-81
2022/02/20 11:35:14;;;;;;;8.68;5.40;;;6.50;99.90;;;;;;5002183;28;20201;-81
2022/02/20 11:37:47;;;;;;;6.13;5.10;;;6.40;99.90;;;;;;5002208;28;20209;-81
2022/02/20 11:40:18;;;;;;;5.50;5.00;;;6.40;99.90;;;;;;5001220;28;20259;-80
2022/02/20 11:43:07;;;;;;;7.65;4.80;;;6.40;99.90;;;;;;5002187;28;20596;-81
2022/02/20 11:45:37;;;;;;;5.10;3.75;;;6.20;99.90;;;;;;5001377;28;20698;-80
2022/02/20 11:48:04;;;;;;;4.70;3.92;;;6.00;99.90;;;;;;5001037;28;20228;-81
2022/02/20 11:50:33;;;;;;;4.20;3.80;;;6.00;99.90;;;;;;5002608;28;20212;-81
2022/02/20 11:53:03;;;;;;;4.53;4.13;;;5.90;99.90;;;;;;5001434;28;20308;-80
2022/02/20 11:55:32;;;;;;;6.28;4.10;;;5.90;99.90;;;;;;5001611;28;20240;-81
2022/02/20 11:58:24;;;;;;;4.10;3.70;;;5.80;99.90;;;;;;5002821;28;20251;-81
2022/02/20 12:01:09;;;;;;;4.07;3.78;;;5.70;99.90;;;;;;5005673;28;20205;-81
2022/02/20 12:03:59;;;;;;;4.93;3.25;;;5.40;99.90;;;;;;5005371;28;20212;-82
2022/02/20 12:06:27;;;;;;;7.10;3.53;;;5.50;99.90;;;;;;5001403;28;20640;-80
2022/02/20 12:08:56;;;;;;;7.50;6.70;;;5.40;99.90;;;;;;5004688;28;20220;-80
2022/02/20 12:11:26;;;;;;;8.18;6.00;;;5.40;99.90;;;;;;5000398;28;20296;-81
2022/02/20 12:13:54;;;;;;;11.10;7.55;;;5.20;99.90;;;;;;5001598;28;20240;-81
2022/02/20 12:16:30;;;;;;;10.65;7.43;;;5.30;99.90;;;;;;5000913;28;20292;-81
2022/02/20 12:19:12;;;;;;;10.80;6.88;;;5.20;99.90;;;;;;5001340;28;20196;-80
2022/02/20 12:22:00;;;;;;;9.50;5.00;;;5.40;99.90;;;;;;5002278;28;20181;-78
2022/02/20 12:24:30;;;;;;;8.80;6.20;;;5.00;99.90;;;;;;5005526;28;20216;-80
2022/02/20 12:27:00;;;;;;;10.80;8.30;;;5.10;99.90;;;;;;5010741;28;20201;-81
2022/02/20 12:29:36;;;;;;;10.82;5.43;;;5.10;99.90;;;;;;5015420;28;20196;-81
2022/02/20 12:32:14;;;;;;;7.00;5.63;;;5.00;99.90;;;;;;5007489;28;20260;-79
2022/02/20 12:35:10;;;;;;;5.80;5.30;;;4.90;99.90;;;;;;5001905;28;20263;-80
2022/02/20 12:37:38;;;;;;;7.50;6.30;;;5.00;99.90;;;;;;4999910;28;20221;-82
2022/02/20 12:40:07;;;;;;;7.45;5.35;;;4.90;99.90;;;;;;5001088;28;20224;-81
2022/02/20 12:42:41;;;;;;;6.55;5.10;;;5.00;99.90;;;;;;5000564;28;20275;-81
2022/02/20 12:45:15;;;;;;;10.73;4.60;;;5.00;99.90;;;;;;5001215;28;20244;-81
2022/02/20 12:47:42;;;;;;;8.57;5.65;;;5.00;99.90;;;;;;5000247;28;20624;-81
2022/02/20 12:50:11;;;;;;;6.20;5.20;;;5.10;99.90;;;;;;5000873;28;20212;-81
2022/02/20 12:52:39;;;;;;;6.78;4.63;;;5.10;99.90;;;;;;5001039;28;20700;-81
2022/02/20 12:55:07;;;;;;;6.45;5.40;;;5.00;99.90;;;;;;5009482;28;20265;-80
2022/02/20 12:57:37;;;;;;;8.48;7.70;;;5.10;99.90;;;;;;5005882;28;20259;-81
2022/02/20 13:00:09;;;;;;;9.43;5.70;;;5.10;99.90;;;;;;5005208;28;20199;-82